createdAt,value
2023-11-15T00:00:29.131Z,8.32
2023-11-15T00:02:55.842Z,7.25
2023-11-15T00:05:22.777Z,10.02
2023-11-15T00:07:50.400Z,5.38
2023-11-15T00:10:17.005Z,8.05
2023-11-15T00:12:46.265Z,6.85
2023-11-15T00:15:12.852Z,9.88
2023-11-15T00:17:39.476Z,7.80
2023-11-15T00:20:07.837Z,4.07
2023-11-15T00:22:34.400Z,4.80
2023-11-15T00:25:02.131Z,10.43
2023-11-15T00:27:28.724Z,7.82
2023-11-15T00:29:55.372Z,9.60
2023-11-15T00:32:23.082Z,8.45
2023-11-15T00:34:49.742Z,5.80
2023-11-15T00:37:16.762Z,7.70
2023-11-15T00:39:44.390Z,7.70
2023-11-15T00:42:11.839Z,7.47
2023-11-15T00:44:38.860Z,6.55
2023-11-15T00:47:06.811Z,7.18
2023-11-15T00:49:34.151Z,8.15
2023-11-15T00:52:00.918Z,7.60
2023-11-15T00:54:28.567Z,7.65
2023-11-15T00:56:55.211Z,8.07
2023-11-15T00:59:23.131Z,7.78
2023-11-15T01:01:49.953Z,9.30
2023-11-15T01:04:16.626Z,11.88
2023-11-15T01:06:44.303Z,7.32
2023-11-15T01:09:11.912Z,9.93
2023-11-15T01:11:38.641Z,11.77
2023-11-15T01:14:06.381Z,9.02
2023-11-15T01:16:32.993Z,4.75
2023-11-15T01:19:00.858Z,6.60
2023-11-15T01:21:27.444Z,9.00
2023-11-15T01:23:54.062Z,9.48
2023-11-15T01:26:21.820Z,4.88
2023-11-15T01:28:48.524Z,7.40
2023-11-15T01:31:15.104Z,9.57
2023-11-15T01:33:45.063Z,7.03
2023-11-15T01:36:11.670Z,9.27
2023-11-15T01:38:39.339Z,7.32
2023-11-15T01:41:06.134Z,8.50
2023-11-15T01:43:32.718Z,8.88
2023-11-15T01:46:00.374Z,10.02
2023-11-15T01:48:27.041Z,10.15
2023-11-15T01:50:54.840Z,7.75
2023-11-15T01:53:21.528Z,9.10
2023-11-15T01:55:49.279Z,6.88
2023-11-15T01:58:16.090Z,9.05
2023-11-15T02:00:42.943Z,6.88
2023-11-15T02:03:10.781Z,9.50
2023-11-15T02:05:37.475Z,9.00
2023-11-15T02:08:04.926Z,5.40
2023-11-15T02:10:32.889Z,9.38
2023-11-15T02:12:59.463Z,8.15
2023-11-15T02:15:26.042Z,7.28
2023-11-15T02:17:53.717Z,8.15
2023-11-15T02:20:20.422Z,9.77
2023-11-15T02:22:51.014Z,10.13
2023-11-15T02:25:18.751Z,6.22
2023-11-15T02:27:46.776Z,6.47
2023-11-15T02:30:13.418Z,10.88
2023-11-15T02:32:43.174Z,5.00
2023-11-15T02:35:10.998Z,9.55
2023-11-15T02:37:37.594Z,6.57
2023-11-15T02:40:05.675Z,9.13
2023-11-15T02:42:35.062Z,5.10
2023-11-15T02:45:01.826Z,7.80
2023-11-15T02:47:29.929Z,7.97
2023-11-15T02:49:56.570Z,6.80
2023-11-15T02:52:23.143Z,6.25
2023-11-15T02:54:51.011Z,11.23
2023-11-15T02:57:17.553Z,4.78
2023-11-15T02:59:45.193Z,7.55
2023-11-15T03:02:11.776Z,7.63
2023-11-15T03:04:38.904Z,5.75
2023-11-15T03:07:06.550Z,7.80
2023-11-15T03:09:33.131Z,7.63
2023-11-15T03:11:59.741Z,7.63
2023-11-15T03:14:27.720Z,8.32
2023-11-15T03:16:54.536Z,7.50
2023-11-15T03:19:21.206Z,6.50
2023-11-15T03:21:48.870Z,7.13
2023-11-15T03:24:15.483Z,5.18
2023-11-15T03:26:43.151Z,9.57
2023-11-15T03:29:09.735Z,7.68
2023-11-15T03:31:36.320Z,5.30
2023-11-15T03:34:03.999Z,5.90
2023-11-15T03:36:30.571Z,6.15
2023-11-15T03:38:59.316Z,3.25
2023-11-15T03:41:25.942Z,8.25
2023-11-15T03:43:52.493Z,5.35
2023-11-15T03:46:20.241Z,6.00
2023-11-15T03:48:47.906Z,5.97
2023-11-15T03:51:14.579Z,8.73
2023-11-15T03:53:41.190Z,4.22
2023-11-15T03:56:09.526Z,4.78
2023-11-15T03:58:36.069Z,7.95
2023-11-15T04:01:03.142Z,5.97
2023-11-15T04:03:30.853Z,4.88
2023-11-15T04:05:57.747Z,7.30
2023-11-15T04:08:24.340Z,5.00
2023-11-15T04:10:52.007Z,6.35
2023-11-15T04:13:18.565Z,4.55
2023-11-15T04:15:46.178Z,5.07
2023-11-15T04:18:12.811Z,7.10
2023-11-15T04:20:40.457Z,3.67
2023-11-15T04:23:08.094Z,5.13
2023-11-15T04:25:34.645Z,4.18
2023-11-15T04:28:02.291Z,4.57
2023-11-15T04:30:29.982Z,5.30
2023-11-15T04:32:56.637Z,4.35
2023-11-15T04:35:24.340Z,5.50
2023-11-15T04:37:51.075Z,5.57
2023-11-15T04:40:18.702Z,5.20
2023-11-15T04:42:46.375Z,2.97
2023-11-15T04:45:13.106Z,3.97
2023-11-15T04:47:40.217Z,4.40
2023-11-15T04:50:08.449Z,4.03
2023-11-15T04:52:36.042Z,3.28
2023-11-15T04:55:02.625Z,4.38
2023-11-15T04:57:31.290Z,4.88
2023-11-15T04:59:57.882Z,4.03
2023-11-15T05:02:24.653Z,6.57
2023-11-15T05:04:53.311Z,8.80
2023-11-15T05:07:21.188Z,4.28
2023-11-15T05:09:47.728Z,5.25
2023-11-15T05:12:15.388Z,1.67
2023-11-15T05:14:41.990Z,4.68
2023-11-15T05:17:09.702Z,4.20
2023-11-15T05:19:36.328Z,4.93
2023-11-15T05:22:02.925Z,4.55
2023-11-15T05:24:30.587Z,9.07
2023-11-15T05:26:57.176Z,5.00
2023-11-15T05:29:24.833Z,3.85
2023-11-15T05:31:51.778Z,5.30
2023-11-15T05:34:18.329Z,6.60
2023-11-15T05:36:45.954Z,6.65
2023-11-15T05:39:12.508Z,4.32
2023-11-15T05:41:40.194Z,2.25
2023-11-15T05:44:07.936Z,2.50
2023-11-15T05:46:34.625Z,4.38
2023-11-15T05:49:02.364Z,3.05
2023-11-15T05:51:29.020Z,7.50
2023-11-15T05:53:55.625Z,3.38
2023-11-15T05:56:23.381Z,4.43
2023-11-15T05:58:49.970Z,3.60
2023-11-15T06:01:17.632Z,5.78
2023-11-15T06:03:44.366Z,4.80
2023-11-15T06:06:11.012Z,3.78
2023-11-15T06:08:38.670Z,5.78
2023-11-15T06:11:05.554Z,5.07
2023-11-15T06:13:32.213Z,6.90
2023-11-15T06:15:59.864Z,4.80
2023-11-15T06:18:26.538Z,5.07
2023-11-15T06:20:53.204Z,3.83
2023-11-15T06:23:20.871Z,6.38
2023-11-15T06:25:47.433Z,5.45
2023-11-15T06:28:15.068Z,5.65
2023-11-15T06:30:42.925Z,2.80
2023-11-15T06:33:10.826Z,3.92
2023-11-15T06:35:37.579Z,5.13
2023-11-15T06:38:04.289Z,3.35
2023-11-15T06:40:31.933Z,3.08
2023-11-15T06:42:58.530Z,4.00
2023-11-15T06:45:26.179Z,9.52
2023-11-15T06:47:52.788Z,2.50
2023-11-15T06:50:20.411Z,4.88
2023-11-15T06:52:47.073Z,3.97
2023-11-15T06:55:13.641Z,11.25
2023-11-15T06:57:42.084Z,4.72
2023-11-15T07:00:10.808Z,6.45
2023-11-15T07:02:38.743Z,4.85
2023-11-15T07:05:06.269Z,2.95
2023-11-15T07:07:34.236Z,2.97
2023-11-15T07:10:00.828Z,5.05
2023-11-15T07:12:27.542Z,2.75
2023-11-15T07:14:55.218Z,4.13
2023-11-15T07:17:21.829Z,1.85
2023-11-15T07:19:48.396Z,6.63
2023-11-15T07:22:16.908Z,3.92
2023-11-15T07:24:44.172Z,1.80
2023-11-15T07:27:11.810Z,4.75
2023-11-15T07:29:38.488Z,4.57
2023-11-15T07:32:06.512Z,5.45
2023-11-15T07:34:33.440Z,2.88
2023-11-15T07:37:00.047Z,4.40
2023-11-15T07:39:28.186Z,3.65
2023-11-15T07:41:55.326Z,8.52
2023-11-15T07:44:22.956Z,3.08
2023-11-15T07:46:50.563Z,5.22
2023-11-15T07:49:18.000Z,5.47
2023-11-15T07:51:46.119Z,3.45
2023-11-15T07:54:12.860Z,3.15
2023-11-15T07:56:40.490Z,6.20
2023-11-15T07:59:07.363Z,2.08
2023-11-15T08:01:33.996Z,4.75
2023-11-15T08:04:01.843Z,4.53
2023-11-15T08:06:29.111Z,5.03
2023-11-15T08:08:55.693Z,5.15
2023-11-15T08:11:23.312Z,5.70
2023-11-15T08:13:49.851Z,3.35
2023-11-15T08:16:16.417Z,6.28
2023-11-15T08:18:44.105Z,3.00
2023-11-15T08:21:11.817Z,3.28
2023-11-15T08:23:38.449Z,4.93
2023-11-15T08:26:06.676Z,7.40
2023-11-15T08:28:33.235Z,5.75
2023-11-15T08:30:59.974Z,7.57
2023-11-15T08:33:28.848Z,3.33
2023-11-15T08:38:22.054Z,5.32
2023-11-15T08:40:49.673Z,4.95
2023-11-15T08:43:19.050Z,3.67
2023-11-15T08:45:46.847Z,3.42
2023-11-15T08:48:13.710Z,4.03
2023-11-15T08:50:44.440Z,2.15
2023-11-15T08:53:14.381Z,4.40
2023-11-15T08:55:42.023Z,4.43
2023-11-15T08:58:08.705Z,3.75
2023-11-15T09:00:35.291Z,4.88
2023-11-15T09:03:03.053Z,6.13
2023-11-15T09:05:32.703Z,2.80
2023-11-15T09:07:59.409Z,4.30
2023-11-15T09:10:25.951Z,7.15
2023-11-15T09:12:53.744Z,4.85
2023-11-15T09:15:21.688Z,4.50
2023-11-15T09:17:48.429Z,5.05
2023-11-15T09:20:23.978Z,8.18
2023-11-15T09:22:51.659Z,5.00
2023-11-15T09:25:18.830Z,7.35
2023-11-15T09:27:45.362Z,5.72
2023-11-15T09:30:13.823Z,11.85
2023-11-15T09:32:43.839Z,5.57
2023-11-15T09:35:10.589Z,5.28
2023-11-15T09:37:40.984Z,5.63
2023-11-15T09:40:09.399Z,3.85
2023-11-15T09:42:39.561Z,7.18
2023-11-15T09:45:10.027Z,8.00
2023-11-15T09:47:38.503Z,3.20
2023-11-15T09:50:07.314Z,3.10
2023-11-15T09:52:34.941Z,5.57
2023-11-15T09:55:02.687Z,5.55
2023-11-15T09:57:29.270Z,7.72
2023-11-15T10:00:05.398Z,2.92
2023-11-15T10:02:40.816Z,5.85
2023-11-15T10:05:27.885Z,4.32
2023-11-15T10:08:14.283Z,5.40
2023-11-15T10:10:46.133Z,8.35
2023-11-15T10:13:18.369Z,7.28
2023-11-15T10:15:46.798Z,5.15
2023-11-15T10:18:15.580Z,4.68
2023-11-15T10:20:44.365Z,5.20
2023-11-15T10:23:11.710Z,8.23
2023-11-15T10:25:52.625Z,6.80
2023-11-15T10:28:20.324Z,7.70
2023-11-15T10:30:47.003Z,4.30
2023-11-15T10:33:14.808Z,5.18
2023-11-15T10:35:41.726Z,4.65
2023-11-15T10:38:09.394Z,5.38
2023-11-15T10:40:37.450Z,5.93
2023-11-15T10:43:06.619Z,4.85
2023-11-15T10:45:34.393Z,5.50
2023-11-15T10:48:07.542Z,9.60
2023-11-15T10:50:38.473Z,7.63
2023-11-15T10:53:06.156Z,27.25
2023-11-15T10:55:33.898Z,5.72
2023-11-15T10:58:02.927Z,7.63
2023-11-15T11:00:30.434Z,3.05
2023-11-15T11:03:00.371Z,28.10
2023-11-15T11:05:44.237Z,9.57
2023-11-15T11:08:38.748Z,13.52
2023-11-15T11:11:11.419Z,6.60
2023-11-15T11:13:39.548Z,7.45
2023-11-15T11:16:34.542Z,11.70
2023-11-15T11:19:20.192Z,6.95
2023-11-15T11:21:59.027Z,7.15
2023-11-15T11:24:26.650Z,5.47
2023-11-15T11:26:54.368Z,7.60
2023-11-15T11:29:20.995Z,4.07
2023-11-15T11:32:23.459Z,3.50
2023-11-15T11:35:02.341Z,17.23
2023-11-15T11:37:43.876Z,7.65
2023-11-15T11:40:10.438Z,4.32
2023-11-15T11:42:38.002Z,7.47
2023-11-15T11:45:06.193Z,6.07
2023-11-15T11:47:42.123Z,5.93
2023-11-15T11:50:10.405Z,5.22
2023-11-15T11:52:37.168Z,6.72
2023-11-15T11:55:04.991Z,5.05
2023-11-15T11:57:32.759Z,7.00
2023-11-15T12:00:06.681Z,9.13
2023-11-15T12:02:38.104Z,4.07
2023-11-15T12:05:05.637Z,4.70
2023-11-15T12:07:33.541Z,4.60
2023-11-15T12:10:04.576Z,8.30
2023-11-15T12:12:32.207Z,6.07
2023-11-15T12:14:59.767Z,3.85
2023-11-15T12:17:40.490Z,6.40
2023-11-15T12:20:08.632Z,4.72
2023-11-15T12:22:37.247Z,6.38
2023-11-15T12:25:05.696Z,6.38
2023-11-15T12:27:33.357Z,5.55
2023-11-15T12:30:01.117Z,4.70
2023-11-15T12:32:27.848Z,5.00
2023-11-15T12:34:55.458Z,9.05
2023-11-15T12:37:23.224Z,5.10
2023-11-15T12:39:49.828Z,8.70
2023-11-15T12:42:27.889Z,3.83
2023-11-15T12:44:54.566Z,7.40
2023-11-15T12:47:24.771Z,5.05
2023-11-15T12:49:52.457Z,9.90
2023-11-15T12:52:44.689Z,9.13
2023-11-15T12:55:15.512Z,5.00
2023-11-15T12:57:53.219Z,4.20
2023-11-15T13:00:29.456Z,5.85
2023-11-15T13:02:57.566Z,5.53
2023-11-15T13:05:29.181Z,5.07
2023-11-15T13:07:55.868Z,8.30
2023-11-15T13:10:23.786Z,4.85
2023-11-15T13:12:50.397Z,5.78
2023-11-15T13:15:18.088Z,6.35
2023-11-15T13:17:47.713Z,10.13
2023-11-15T13:20:14.359Z,8.60
2023-11-15T13:22:41.990Z,1.75
2023-11-15T13:25:08.785Z,7.13
2023-11-15T13:27:36.616Z,9.35
2023-11-15T13:30:03.508Z,4.43
2023-11-15T13:32:30.185Z,10.57
2023-11-15T13:34:57.875Z,14.18
2023-11-15T13:37:24.461Z,6.80
2023-11-15T13:39:52.078Z,5.28
2023-11-15T13:42:18.809Z,8.73
2023-11-15T13:44:45.412Z,9.05
2023-11-15T13:47:13.119Z,8.75
2023-11-15T13:49:39.700Z,3.05
2023-11-15T13:52:06.328Z,16.35
2023-11-15T13:54:33.995Z,11.85
2023-11-15T13:57:00.646Z,5.03
2023-11-15T13:59:27.260Z,6.88
2023-11-15T14:01:55.896Z,12.43
2023-11-15T14:04:23.571Z,9.82
2023-11-15T14:06:50.167Z,8.85
2023-11-15T14:09:16.726Z,4.90
2023-11-15T14:11:44.403Z,6.15
2023-11-15T14:14:11.044Z,7.85
2023-11-15T14:16:37.878Z,5.38
2023-11-15T14:19:05.580Z,11.48
2023-11-15T14:21:33.202Z,6.10
2023-11-15T14:23:59.862Z,5.72
2023-11-15T14:26:26.426Z,9.63
2023-11-15T14:28:54.079Z,5.80
2023-11-15T14:31:20.705Z,6.57
2023-11-15T14:33:47.439Z,5.53
2023-11-15T14:36:17.652Z,7.10
2023-11-15T14:38:46.085Z,9.18
2023-11-15T14:41:14.066Z,5.90
2023-11-15T14:43:42.273Z,5.75
2023-11-15T14:46:08.907Z,4.47
2023-11-15T14:48:35.581Z,5.88
2023-11-15T14:51:04.313Z,6.65
2023-11-15T14:53:31.493Z,5.03
2023-11-15T14:55:58.396Z,6.75
2023-11-15T14:58:26.045Z,3.92
2023-11-15T15:00:52.693Z,5.15
2023-11-15T15:03:19.388Z,8.30
2023-11-15T15:05:47.350Z,9.07
2023-11-15T15:08:13.907Z,7.22
2023-11-15T15:10:41.651Z,7.15
2023-11-15T15:13:08.263Z,4.90
2023-11-15T15:15:39.386Z,7.70
2023-11-15T15:18:13.255Z,5.75
2023-11-15T15:20:43.656Z,7.38
2023-11-15T15:23:11.381Z,8.82
2023-11-15T15:25:37.931Z,7.03
2023-11-15T15:28:05.359Z,6.30
2023-11-15T15:30:33.036Z,5.45
2023-11-15T15:33:01.277Z,3.63
2023-11-15T15:35:32.471Z,5.32
2023-11-15T15:37:59.868Z,7.78
2023-11-15T15:40:26.493Z,7.22
2023-11-15T15:42:54.777Z,10.70
2023-11-15T15:45:21.514Z,4.75
2023-11-15T15:47:50.148Z,10.77
2023-11-15T15:50:16.793Z,7.88
2023-11-15T15:52:44.053Z,4.32
2023-11-15T15:55:12.355Z,5.07
2023-11-15T15:57:39.422Z,6.88
2023-11-15T16:00:08.037Z,7.68
2023-11-15T16:02:36.444Z,7.38
2023-11-15T16:05:06.752Z,5.70
2023-11-15T16:07:33.610Z,9.38
2023-11-15T16:10:01.698Z,9.45
2023-11-15T16:12:28.981Z,9.40
2023-11-15T16:14:55.686Z,8.23
2023-11-15T16:17:23.869Z,8.52
2023-11-15T16:19:50.539Z,8.88
2023-11-15T16:22:18.151Z,8.45
2023-11-15T16:24:44.731Z,9.18
2023-11-15T16:27:13.701Z,19.05
2023-11-15T16:29:43.303Z,9.43
2023-11-15T16:32:10.925Z,6.50
2023-11-15T16:34:37.497Z,9.15
2023-11-15T16:37:05.353Z,6.78
2023-11-15T16:39:31.930Z,8.05
2023-11-15T16:41:58.539Z,11.70
2023-11-15T16:44:26.188Z,10.32
2023-11-15T16:46:52.755Z,8.30
2023-11-15T16:49:19.306Z,10.48
2023-11-15T16:51:47.072Z,10.18
2023-11-15T16:54:13.730Z,13.60
2023-11-15T16:56:40.288Z,15.98
2023-11-15T16:59:07.886Z,11.30
2023-11-15T17:01:34.436Z,12.63
2023-11-15T17:04:01.373Z,11.95
2023-11-15T17:06:29.119Z,10.25
2023-11-15T17:08:55.694Z,13.40
2023-11-15T17:11:22.272Z,10.10
2023-11-15T17:13:49.955Z,15.88
2023-11-15T17:16:16.646Z,12.23
2023-11-15T17:18:44.572Z,14.10
2023-11-15T17:21:11.191Z,10.68
2023-11-15T17:23:38.508Z,15.25
2023-11-15T17:26:06.536Z,14.07
2023-11-15T17:28:33.092Z,15.50
2023-11-15T17:30:59.658Z,13.80
2023-11-15T17:33:27.353Z,14.68
2023-11-15T17:35:54.000Z,15.18
2023-11-15T17:38:20.609Z,27.10
2023-11-15T17:40:48.207Z,17.73
2023-11-15T17:43:14.780Z,25.27
2023-11-15T17:45:41.470Z,18.38
2023-11-15T17:48:09.271Z,17.90
2023-11-15T17:50:35.926Z,16.70
2023-11-15T17:53:03.566Z,15.80
2023-11-15T17:55:30.665Z,17.60
2023-11-15T17:57:57.286Z,22.10
2023-11-15T18:00:25.166Z,16.83
2023-11-15T18:02:51.885Z,15.18
2023-11-15T18:05:19.645Z,16.42
2023-11-15T18:07:46.719Z,15.55
2023-11-15T18:10:14.622Z,18.35
2023-11-15T18:12:43.870Z,17.90
2023-11-15T18:15:11.602Z,17.00
2023-11-15T18:17:39.279Z,15.52
2023-11-15T18:20:06.648Z,15.57
2023-11-15T18:22:33.208Z,12.68
2023-11-15T18:25:00.849Z,15.75
2023-11-15T18:27:27.711Z,15.57
2023-11-15T18:29:54.302Z,19.02
2023-11-15T18:32:22.416Z,19.20
2023-11-15T18:34:50.078Z,14.27
2023-11-15T18:37:16.622Z,14.98
2023-11-15T18:39:43.207Z,17.27
2023-11-15T18:42:14.113Z,18.20
2023-11-15T18:44:41.791Z,47.03
2023-11-15T18:47:11.621Z,45.20
2023-11-15T18:49:39.768Z,24.85
2023-11-15T18:52:06.867Z,17.98
2023-11-15T18:54:34.570Z,54.60
2023-11-15T18:57:01.250Z,58.40
2023-11-15T18:59:28.895Z,93.30
2023-11-15T19:01:56.524Z,64.45
2023-11-15T19:04:23.179Z,45.97
2023-11-15T19:06:50.911Z,34.85
2023-11-15T19:09:17.676Z,25.75
2023-11-15T19:11:45.361Z,22.73
2023-11-15T19:14:12.954Z,31.63
2023-11-15T19:16:39.568Z,36.20
2023-11-15T19:19:07.356Z,48.47
2023-11-15T19:21:34.077Z,41.47
2023-11-15T19:24:04.627Z,39.75
2023-11-15T19:26:31.211Z,35.20
2023-11-15T19:28:58.832Z,36.08
2023-11-15T19:31:25.481Z,32.80
2023-11-15T19:33:52.112Z,28.45
2023-11-15T19:36:19.803Z,24.38
2023-11-15T19:38:46.525Z,33.63
2023-11-15T19:41:23.372Z,28.10
2023-11-15T19:43:50.100Z,21.75
2023-11-15T19:46:20.577Z,21.48
2023-11-15T19:48:47.738Z,16.52
2023-11-15T19:51:15.016Z,22.48
2023-11-15T19:53:42.668Z,20.20
2023-11-15T19:56:10.323Z,19.02
2023-11-15T19:58:36.889Z,20.20
2023-11-15T20:01:03.787Z,19.08
2023-11-15T20:03:31.557Z,17.83
2023-11-15T20:05:58.202Z,25.50
2023-11-15T20:08:25.806Z,24.50
2023-11-15T20:10:53.476Z,21.60
2023-11-15T20:13:21.144Z,22.05
2023-11-15T20:15:47.672Z,21.52
2023-11-15T20:18:15.381Z,16.85
2023-11-15T20:20:41.948Z,24.33
2023-11-15T20:23:08.520Z,21.83
2023-11-15T20:25:36.126Z,22.33
2023-11-15T20:28:02.680Z,29.15
2023-11-15T20:30:30.436Z,31.13
2023-11-15T20:32:57.138Z,23.80
2023-11-15T20:35:24.888Z,25.45
2023-11-15T20:37:51.505Z,27.52
2023-11-15T20:40:18.080Z,21.88
2023-11-15T20:42:45.900Z,25.17
2023-11-15T20:45:12.696Z,28.08
2023-11-15T20:47:40.520Z,29.42
2023-11-15T20:50:07.674Z,25.77
2023-11-15T20:52:34.921Z,36.55
2023-11-15T20:55:02.883Z,45.00
2023-11-15T20:57:29.459Z,39.58
2023-11-15T21:00:00.020Z,41.50
2023-11-15T21:02:26.975Z,38.58
2023-11-15T21:04:54.786Z,38.45
2023-11-15T21:07:21.501Z,35.78
2023-11-15T21:09:49.133Z,43.75
2023-11-15T21:12:15.731Z,36.05
2023-11-15T21:14:43.376Z,33.10
2023-11-15T21:17:09.950Z,33.35
2023-11-15T21:19:40.635Z,27.35
2023-11-15T21:22:07.271Z,34.08
2023-11-15T21:24:34.030Z,33.92
2023-11-15T21:27:01.747Z,34.55
2023-11-15T21:29:28.360Z,29.17
2023-11-15T21:31:56.076Z,34.55
2023-11-15T21:34:22.667Z,31.80
2023-11-15T21:36:50.267Z,26.50
2023-11-15T21:39:16.839Z,24.30
2023-11-15T21:41:43.439Z,25.23
2023-11-15T21:44:11.111Z,27.98
2023-11-15T21:46:37.688Z,23.80
2023-11-15T21:49:05.279Z,20.20
2023-11-15T21:51:33.007Z,16.55
2023-11-15T21:54:01.707Z,18.90
2023-11-15T21:56:28.324Z,23.50
2023-11-15T21:58:54.906Z,19.95
2023-11-15T22:01:23.693Z,20.98
2023-11-15T22:03:50.422Z,24.15
2023-11-15T22:06:17.167Z,23.30
2023-11-15T22:08:46.246Z,19.83
2023-11-15T22:13:40.247Z,23.00
2023-11-15T22:16:07.943Z,21.70
2023-11-15T22:18:38.380Z,21.75
2023-11-15T22:21:07.277Z,26.98
2023-11-15T22:23:33.931Z,23.83
2023-11-15T22:26:01.797Z,28.48
2023-11-15T22:28:28.376Z,23.27
2023-11-15T22:30:55.007Z,27.38
2023-11-15T22:33:22.663Z,19.25
2023-11-15T22:35:49.801Z,22.42
2023-11-15T22:38:17.491Z,15.77
2023-11-15T22:40:44.095Z,23.05
2023-11-15T22:43:11.361Z,23.27
2023-11-15T22:45:39.224Z,20.95
2023-11-15T22:48:06.449Z,22.75
2023-11-15T22:50:35.213Z,23.17
2023-11-15T22:53:01.785Z,22.15
2023-11-15T22:55:29.394Z,22.95
2023-11-15T22:57:55.958Z,32.13
2023-11-15T23:00:22.609Z,27.17
2023-11-15T23:02:51.403Z,23.98
2023-11-15T23:05:18.113Z,20.90
2023-11-15T23:07:45.814Z,21.30
2023-11-15T23:10:12.393Z,19.73
2023-11-15T23:12:40.107Z,22.85
2023-11-15T23:15:07.052Z,18.25
2023-11-15T23:17:33.648Z,30.10
2023-11-15T23:20:01.277Z,24.52
2023-11-15T23:22:28.933Z,23.02
2023-11-15T23:24:56.708Z,24.58
2023-11-15T23:27:23.333Z,27.38
2023-11-15T23:29:50.974Z,25.00
2023-11-15T23:32:17.561Z,24.33
2023-11-15T23:34:44.150Z,26.95
2023-11-15T23:37:11.785Z,22.05
2023-11-15T23:39:38.430Z,20.45
2023-11-15T23:42:06.408Z,33.08
2023-11-15T23:44:33.024Z,22.05
2023-11-15T23:47:00.709Z,22.80
2023-11-15T23:49:28.376Z,35.45
2023-11-15T23:51:54.964Z,23.67
2023-11-15T23:54:22.747Z,20.55
2023-11-15T23:56:49.326Z,18.38
2023-11-15T23:59:16.972Z,25.75
